Terminal Aerodrome Forecast
Issued by NWS Boston, MA

Home | Current Version | Previous Version | Text Only | Print | Product List | Glossary On
Versions: 1 2 3 4 5 6 7 8 9 10 11 12 13 14 15 16 17 18 19 20 21 22 23 24
000
FTUS41 KBOX 171723
TAFPVD
TAF
KPVD 171723Z 1718/1818 19007KT P6SM FEW250
     FM172000 19011G18KT P6SM FEW250
     FM180600 00000KT P6SM SCT025
     FM181000 17005KT P6SM OVC025
     FM181400 17007KT P6SM VCSH OVC020=

USA.gov is the U.S. government's official web portal to all federal, state and local government web resources and services.